Norwood, Illinois
Current Conditions -  °F | °C
As of 5:54 AM on Sunday 21 Dec 2014 (Local Time) from KPIA Reporting Station
Overcast Overcast  
Wind Chill: 30°   Ceiling: 3800
Heat Index: 36°   Visibility: 8mi
Dew Point: 30°   Wind: 7mph
Humidity: 79%   Direction: 150°SSE
Pressure: 30.19"   Gusts: NA
Location:  40.7064°N, 89.6585°W
Report Text: KPIA 211154Z 15006KT 8SM OVC038 02/M01 A3019 RMK AO2 SLP229 T00221011 10022 20022 56006
Loading
Personal Weather Stations






























Interactive Weather Map New forecast layout! Learn more

10-Day Weather Forecast

Advertisements
Track Severe Weather on mobile